sensor_id;sensor_type;location;lat;lon;timestamp;temperature;humidity
31783;DHT22;18351;47.560;9.708;2023-02-01T00:01:31;4.10;99.90
31783;DHT22;18351;47.560;9.708;2023-02-01T00:03:57;4.00;99.90
31783;DHT22;18351;47.560;9.708;2023-02-01T00:06:22;4.00;99.90
31783;DHT22;18351;47.560;9.708;2023-02-01T00:08:48;4.00;99.90
31783;DHT22;18351;47.560;9.708;2023-02-01T00:11:14;4.00;99.90
31783;DHT22;18351;47.560;9.708;2023-02-01T00:13:41;4.00;99.90
31783;DHT22;18351;47.560;9.708;2023-02-01T00:16:09;4.00;99.90
31783;DHT22;18351;47.560;9.708;2023-02-01T00:18:35;4.00;99.90
31783;DHT22;18351;47.560;9.708;2023-02-01T00:21:01;4.00;99.90
31783;DHT22;18351;47.560;9.708;2023-02-01T00:23:27;4.10;99.90
31783;DHT22;18351;47.560;9.708;2023-02-01T00:25:53;4.10;99.90
31783;DHT22;18351;47.560;9.708;2023-02-01T00:28:19;4.10;99.90
31783;DHT22;18351;47.560;9.708;2023-02-01T00:30:44;4.10;99.90
31783;DHT22;18351;47.560;9.708;2023-02-01T00:33:10;4.10;99.90
31783;DHT22;18351;47.560;9.708;2023-02-01T00:35:36;4.10;99.90
31783;DHT22;18351;47.560;9.708;2023-02-01T00:38:02;4.10;99.90
31783;DHT22;18351;47.560;9.708;2023-02-01T00:40:27;4.10;99.90
31783;DHT22;18351;47.560;9.708;2023-02-01T00:42:53;4.10;99.90
31783;DHT22;18351;47.560;9.708;2023-02-01T00:45:19;4.10;99.90
31783;DHT22;18351;47.560;9.708;2023-02-01T00:47:45;4.00;99.90
31783;DHT22;18351;47.560;9.708;2023-02-01T00:50:10;4.00;99.90
31783;DHT22;18351;47.560;9.708;2023-02-01T00:52:36;4.00;99.90
31783;DHT22;18351;47.560;9.708;2023-02-01T00:55:02;4.00;99.90
31783;DHT22;18351;47.560;9.708;2023-02-01T00:57:27;4.00;99.90
31783;DHT22;18351;47.560;9.708;2023-02-01T00:59:53;4.00;99.90
31783;DHT22;18351;47.560;9.708;2023-02-01T01:02:18;4.00;99.90
31783;DHT22;18351;47.560;9.708;2023-02-01T01:04:44;4.00;99.90
31783;DHT22;18351;47.560;9.708;2023-02-01T01:07:09;3.90;99.90
31783;DHT22;18351;47.560;9.708;2023-02-01T01:09:35;4.00;99.90
31783;DHT22;18351;47.560;9.708;2023-02-01T01:12:00;3.90;99.90
31783;DHT22;18351;47.560;9.708;2023-02-01T01:14:29;3.90;99.90
31783;DHT22;18351;47.560;9.708;2023-02-01T01:16:54;3.90;99.90
31783;DHT22;18351;47.560;9.708;2023-02-01T01:19:20;3.90;99.90
31783;DHT22;18351;47.560;9.708;2023-02-01T01:21:46;3.90;99.90
31783;DHT22;18351;47.560;9.708;2023-02-01T01:24:11;3.90;99.90
31783;DHT22;18351;47.560;9.708;2023-02-01T01:26:37;3.80;99.90
31783;DHT22;18351;47.560;9.708;2023-02-01T01:29:03;3.90;99.90
31783;DHT22;18351;47.560;9.708;2023-02-01T01:31:29;3.90;99.90
31783;DHT22;18351;47.560;9.708;2023-02-01T01:33:56;3.90;99.90
31783;DHT22;18351;47.560;9.708;2023-02-01T01:36:23;3.80;99.90
31783;DHT22;18351;47.560;9.708;2023-02-01T01:38:50;3.90;99.90
31783;DHT22;18351;47.560;9.708;2023-02-01T01:41:22;3.90;99.90
31783;DHT22;18351;47.560;9.708;2023-02-01T01:49:04;3.80;99.90
31783;DHT22;18351;47.560;9.708;2023-02-01T01:51:32;3.70;99.90
31783;DHT22;18351;47.560;9.708;2023-02-01T01:54:07;3.70;99.90
31783;DHT22;18351;47.560;9.708;2023-02-01T01:56:37;3.60;99.90
31783;DHT22;18351;47.560;9.708;2023-02-01T01:59:03;3.60;99.90
31783;DHT22;18351;47.560;9.708;2023-02-01T02:01:30;3.60;99.90
31783;DHT22;18351;47.560;9.708;2023-02-01T02:03:56;3.50;99.90
31783;DHT22;18351;47.560;9.708;2023-02-01T02:06:30;3.50;99.90
31783;DHT22;18351;47.560;9.708;2023-02-01T02:09:00;3.50;99.90
31783;DHT22;18351;47.560;9.708;2023-02-01T02:11:25;3.60;99.90
31783;DHT22;18351;47.560;9.708;2023-02-01T02:13:53;3.60;99.90
31783;DHT22;18351;47.560;9.708;2023-02-01T02:24:31;3.60;99.90
31783;DHT22;18351;47.560;9.708;2023-02-01T02:32:58;3.70;99.90
31783;DHT22;18351;47.560;9.708;2023-02-01T02:38:38;3.70;99.90
31783;DHT22;18351;47.560;9.708;2023-02-01T02:41:18;3.70;99.90
31783;DHT22;18351;47.560;9.708;2023-02-01T02:44:12;3.70;99.90
31783;DHT22;18351;47.560;9.708;2023-02-01T02:46:59;3.80;99.90
31783;DHT22;18351;47.560;9.708;2023-02-01T02:50:02;3.80;99.90
31783;DHT22;18351;47.560;9.708;2023-02-01T02:53:02;3.80;99.90
31783;DHT22;18351;47.560;9.708;2023-02-01T02:55:50;3.90;99.90
31783;DHT22;18351;47.560;9.708;2023-02-01T02:58:16;3.90;99.90
31783;DHT22;18351;47.560;9.708;2023-02-01T03:01:02;4.00;99.90
31783;DHT22;18351;47.560;9.708;2023-02-01T03:03:48;4.00;99.90
31783;DHT22;18351;47.560;9.708;2023-02-01T03:06:34;4.10;99.90
31783;DHT22;18351;47.560;9.708;2023-02-01T03:09:02;4.10;99.90
31783;DHT22;18351;47.560;9.708;2023-02-01T03:11:31;4.10;99.90
31783;DHT22;18351;47.560;9.708;2023-02-01T03:14:18;4.20;99.90
31783;DHT22;18351;47.560;9.708;2023-02-01T03:16:51;4.20;99.90
31783;DHT22;18351;47.560;9.708;2023-02-01T03:19:21;4.20;99.90
31783;DHT22;18351;47.560;9.708;2023-02-01T03:21:55;4.20;99.90
31783;DHT22;18351;47.560;9.708;2023-02-01T03:24:42;4.20;99.90
31783;DHT22;18351;47.560;9.708;2023-02-01T03:27:32;4.30;99.90
31783;DHT22;18351;47.560;9.708;2023-02-01T03:32:34;4.30;99.90
31783;DHT22;18351;47.560;9.708;2023-02-01T03:35:30;4.30;99.90
31783;DHT22;18351;47.560;9.708;2023-02-01T03:38:08;4.30;99.90
31783;DHT22;18351;47.560;9.708;2023-02-01T03:40:37;4.30;99.90
31783;DHT22;18351;47.560;9.708;2023-02-01T03:43:06;4.30;99.90
31783;DHT22;18351;47.560;9.708;2023-02-01T03:45:43;4.30;99.90
31783;DHT22;18351;47.560;9.708;2023-02-01T03:48:10;4.30;99.90
31783;DHT22;18351;47.560;9.708;2023-02-01T03:50:42;4.30;99.90
31783;DHT22;18351;47.560;9.708;2023-02-01T03:53:12;4.30;99.90
31783;DHT22;18351;47.560;9.708;2023-02-01T03:55:41;4.30;99.90
31783;DHT22;18351;47.560;9.708;2023-02-01T04:00:36;4.30;99.90
31783;DHT22;18351;47.560;9.708;2023-02-01T04:03:04;4.30;99.90
31783;DHT22;18351;47.560;9.708;2023-02-01T04:05:30;4.40;99.90
31783;DHT22;18351;47.560;9.708;2023-02-01T04:07:56;4.40;99.90
31783;DHT22;18351;47.560;9.708;2023-02-01T04:10:21;4.40;99.90
31783;DHT22;18351;47.560;9.708;2023-02-01T04:12:47;4.40;99.90
31783;DHT22;18351;47.560;9.708;2023-02-01T04:15:13;4.30;99.90
31783;DHT22;18351;47.560;9.708;2023-02-01T04:17:38;4.30;99.90
31783;DHT22;18351;47.560;9.708;2023-02-01T04:20:04;4.30;99.90
31783;DHT22;18351;47.560;9.708;2023-02-01T04:22:30;4.40;99.90
31783;DHT22;18351;47.560;9.708;2023-02-01T04:24:55;4.30;99.90
31783;DHT22;18351;47.560;9.708;2023-02-01T04:27:21;4.30;99.90
31783;DHT22;18351;47.560;9.708;2023-02-01T04:29:47;4.40;99.90
31783;DHT22;18351;47.560;9.708;2023-02-01T04:32:15;4.30;99.90
31783;DHT22;18351;47.560;9.708;2023-02-01T04:34:41;4.30;99.90
31783;DHT22;18351;47.560;9.708;2023-02-01T04:37:07;4.30;99.90
31783;DHT22;18351;47.560;9.708;2023-02-01T04:39:32;4.30;99.90
31783;DHT22;18351;47.560;9.708;2023-02-01T04:41:58;4.30;99.90
31783;DHT22;18351;47.560;9.708;2023-02-01T04:44:24;4.30;99.90
31783;DHT22;18351;47.560;9.708;2023-02-01T04:46:49;4.30;99.90
31783;DHT22;18351;47.560;9.708;2023-02-01T04:49:15;4.40;99.90
31783;DHT22;18351;47.560;9.708;2023-02-01T04:51:41;4.30;99.90
31783;DHT22;18351;47.560;9.708;2023-02-01T04:54:07;4.30;99.90
31783;DHT22;18351;47.560;9.708;2023-02-01T04:56:33;4.30;99.90
31783;DHT22;18351;47.560;9.708;2023-02-01T04:59:00;4.30;99.90
31783;DHT22;18351;47.560;9.708;2023-02-01T05:01:27;4.30;99.90
31783;DHT22;18351;47.560;9.708;2023-02-01T05:03:53;4.20;99.90
31783;DHT22;18351;47.560;9.708;2023-02-01T05:06:19;4.20;99.90
31783;DHT22;18351;47.560;9.708;2023-02-01T05:08:45;4.20;99.90
31783;DHT22;18351;47.560;9.708;2023-02-01T05:11:10;4.20;99.90
31783;DHT22;18351;47.560;9.708;2023-02-01T05:13:56;4.20;99.90
31783;DHT22;18351;47.560;9.708;2023-02-01T05:16:21;4.30;99.90
31783;DHT22;18351;47.560;9.708;2023-02-01T05:18:47;4.30;99.90
31783;DHT22;18351;47.560;9.708;2023-02-01T05:21:12;4.30;99.90
31783;DHT22;18351;47.560;9.708;2023-02-01T05:23:38;4.30;99.90
31783;DHT22;18351;47.560;9.708;2023-02-01T05:26:22;4.30;99.90
31783;DHT22;18351;47.560;9.708;2023-02-01T05:28:48;4.30;99.90
31783;DHT22;18351;47.560;9.708;2023-02-01T05:31:14;4.20;99.90
31783;DHT22;18351;47.560;9.708;2023-02-01T05:33:40;4.20;99.90
31783;DHT22;18351;47.560;9.708;2023-02-01T05:36:05;4.10;99.90
31783;DHT22;18351;47.560;9.708;2023-02-01T05:38:31;4.20;99.90
31783;DHT22;18351;47.560;9.708;2023-02-01T05:41:00;4.20;99.90
31783;DHT22;18351;47.560;9.708;2023-02-01T05:43:26;4.20;99.90
31783;DHT22;18351;47.560;9.708;2023-02-01T05:45:52;4.20;99.90
31783;DHT22;18351;47.560;9.708;2023-02-01T05:48:18;4.20;99.90
31783;DHT22;18351;47.560;9.708;2023-02-01T05:50:44;4.20;99.90
31783;DHT22;18351;47.560;9.708;2023-02-01T05:53:10;4.20;99.90
31783;DHT22;18351;47.560;9.708;2023-02-01T05:55:36;4.20;99.90
31783;DHT22;18351;47.560;9.708;2023-02-01T05:58:02;4.30;99.90
31783;DHT22;18351;47.560;9.708;2023-02-01T06:00:27;4.30;99.90
31783;DHT22;18351;47.560;9.708;2023-02-01T06:02:53;4.30;99.90
31783;DHT22;18351;47.560;9.708;2023-02-01T06:05:18;4.40;99.90
31783;DHT22;18351;47.560;9.708;2023-02-01T06:07:44;4.40;99.90
31783;DHT22;18351;47.560;9.708;2023-02-01T06:10:10;4.30;99.90
31783;DHT22;18351;47.560;9.708;2023-02-01T06:12:35;4.30;99.90
31783;DHT22;18351;47.560;9.708;2023-02-01T06:15:01;4.30;99.90
31783;DHT22;18351;47.560;9.708;2023-02-01T06:17:26;4.20;99.90
31783;DHT22;18351;47.560;9.708;2023-02-01T06:19:52;4.20;99.90
31783;DHT22;18351;47.560;9.708;2023-02-01T06:22:17;4.20;99.90
31783;DHT22;18351;47.560;9.708;2023-02-01T06:24:43;4.20;99.90
31783;DHT22;18351;47.560;9.708;2023-02-01T06:27:09;4.20;99.90
31783;DHT22;18351;47.560;9.708;2023-02-01T06:29:38;4.10;99.90
31783;DHT22;18351;47.560;9.708;2023-02-01T06:32:04;4.10;99.90
31783;DHT22;18351;47.560;9.708;2023-02-01T06:34:29;4.10;99.90
31783;DHT22;18351;47.560;9.708;2023-02-01T06:36:55;4.10;99.90
31783;DHT22;18351;47.560;9.708;2023-02-01T06:39:20;4.10;99.90
31783;DHT22;18351;47.560;9.708;2023-02-01T06:41:50;4.10;99.90
31783;DHT22;18351;47.560;9.708;2023-02-01T06:44:16;4.10;99.90
31783;DHT22;18351;47.560;9.708;2023-02-01T06:46:42;4.10;99.90
31783;DHT22;18351;47.560;9.708;2023-02-01T06:49:07;4.10;99.90
31783;DHT22;18351;47.560;9.708;2023-02-01T06:51:33;4.10;99.90
31783;DHT22;18351;47.560;9.708;2023-02-01T06:54:00;4.10;99.90
31783;DHT22;18351;47.560;9.708;2023-02-01T06:56:26;4.00;99.90
31783;DHT22;18351;47.560;9.708;2023-02-01T06:58:52;4.00;99.90
31783;DHT22;18351;47.560;9.708;2023-02-01T07:01:18;4.10;99.90
31783;DHT22;18351;47.560;9.708;2023-02-01T07:03:47;4.10;99.90
31783;DHT22;18351;47.560;9.708;2023-02-01T07:06:13;4.10;99.90
31783;DHT22;18351;47.560;9.708;2023-02-01T07:08:38;4.10;99.90
31783;DHT22;18351;47.560;9.708;2023-02-01T07:11:09;4.10;99.90
31783;DHT22;18351;47.560;9.708;2023-02-01T07:13:36;4.10;99.90
31783;DHT22;18351;47.560;9.708;2023-02-01T07:16:03;4.20;99.90
31783;DHT22;18351;47.560;9.708;2023-02-01T07:18:29;4.20;99.90
31783;DHT22;18351;47.560;9.708;2023-02-01T07:20:55;4.20;99.90
31783;DHT22;18351;47.560;9.708;2023-02-01T07:23:21;4.20;99.90
31783;DHT22;18351;47.560;9.708;2023-02-01T07:25:47;4.30;99.90
31783;DHT22;18351;47.560;9.708;2023-02-01T07:28:13;4.20;99.90
31783;DHT22;18351;47.560;9.708;2023-02-01T07:30:38;4.30;99.90
31783;DHT22;18351;47.560;9.708;2023-02-01T07:33:04;4.20;99.90
31783;DHT22;18351;47.560;9.708;2023-02-01T07:35:30;4.20;99.90
31783;DHT22;18351;47.560;9.708;2023-02-01T07:37:57;4.10;99.90
31783;DHT22;18351;47.560;9.708;2023-02-01T07:40:23;4.10;99.90
31783;DHT22;18351;47.560;9.708;2023-02-01T07:42:57;4.10;99.90
31783;DHT22;18351;47.560;9.708;2023-02-01T07:45:23;4.10;99.90
31783;DHT22;18351;47.560;9.708;2023-02-01T07:47:50;4.10;99.90
31783;DHT22;18351;47.560;9.708;2023-02-01T07:50:16;4.10;99.90
31783;DHT22;18351;47.560;9.708;2023-02-01T07:52:42;4.10;99.90
31783;DHT22;18351;47.560;9.708;2023-02-01T07:55:08;4.10;99.90
31783;DHT22;18351;47.560;9.708;2023-02-01T07:57:33;4.10;99.90
31783;DHT22;18351;47.560;9.708;2023-02-01T07:59:59;4.10;99.90
31783;DHT22;18351;47.560;9.708;2023-02-01T08:02:43;4.20;99.90
31783;DHT22;18351;47.560;9.708;2023-02-01T08:05:09;4.20;99.90
31783;DHT22;18351;47.560;9.708;2023-02-01T08:07:34;4.30;99.90
31783;DHT22;18351;47.560;9.708;2023-02-01T08:10:00;4.30;99.90
31783;DHT22;18351;47.560;9.708;2023-02-01T08:12:26;4.30;99.90
31783;DHT22;18351;47.560;9.708;2023-02-01T08:14:52;4.30;99.90
31783;DHT22;18351;47.560;9.708;2023-02-01T08:17:20;4.30;99.90
31783;DHT22;18351;47.560;9.708;2023-02-01T08:19:45;4.30;99.90
31783;DHT22;18351;47.560;9.708;2023-02-01T08:22:11;4.40;99.90
31783;DHT22;18351;47.560;9.708;2023-02-01T08:24:37;4.40;99.90
31783;DHT22;18351;47.560;9.708;2023-02-01T08:27:05;4.50;99.90
31783;DHT22;18351;47.560;9.708;2023-02-01T08:29:31;4.50;99.90
31783;DHT22;18351;47.560;9.708;2023-02-01T08:31:57;4.50;99.90
31783;DHT22;18351;47.560;9.708;2023-02-01T08:34:22;4.50;99.90
31783;DHT22;18351;47.560;9.708;2023-02-01T08:36:48;4.40;99.90
31783;DHT22;18351;47.560;9.708;2023-02-01T08:39:14;4.40;99.90
31783;DHT22;18351;47.560;9.708;2023-02-01T08:41:39;4.40;99.90
31783;DHT22;18351;47.560;9.708;2023-02-01T08:44:07;4.40;99.90
31783;DHT22;18351;47.560;9.708;2023-02-01T08:46:33;4.40;99.90
31783;DHT22;18351;47.560;9.708;2023-02-01T08:48:58;4.30;99.90
31783;DHT22;18351;47.560;9.708;2023-02-01T08:51:25;4.30;99.90
31783;DHT22;18351;47.560;9.708;2023-02-01T08:53:51;4.20;99.90
31783;DHT22;18351;47.560;9.708;2023-02-01T08:56:18;4.20;99.90
31783;DHT22;18351;47.560;9.708;2023-02-01T08:58:44;4.10;99.90
31783;DHT22;18351;47.560;9.708;2023-02-01T09:01:13;4.10;99.90
31783;DHT22;18351;47.560;9.708;2023-02-01T09:03:39;4.10;99.90
31783;DHT22;18351;47.560;9.708;2023-02-01T09:06:07;4.20;99.90
31783;DHT22;18351;47.560;9.708;2023-02-01T09:08:34;4.30;99.90
31783;DHT22;18351;47.560;9.708;2023-02-01T09:11:06;4.30;99.90
31783;DHT22;18351;47.560;9.708;2023-02-01T09:13:32;4.30;99.90
31783;DHT22;18351;47.560;9.708;2023-02-01T09:15:59;4.30;99.90
31783;DHT22;18351;47.560;9.708;2023-02-01T09:18:25;4.30;99.90
31783;DHT22;18351;47.560;9.708;2023-02-01T09:20:51;4.30;99.90
31783;DHT22;18351;47.560;9.708;2023-02-01T09:23:17;4.40;99.90
31783;DHT22;18351;47.560;9.708;2023-02-01T09:25:42;4.30;99.90
31783;DHT22;18351;47.560;9.708;2023-02-01T09:28:08;4.40;99.90
31783;DHT22;18351;47.560;9.708;2023-02-01T09:30:35;4.30;99.90
31783;DHT22;18351;47.560;9.708;2023-02-01T09:33:01;4.40;99.90
31783;DHT22;18351;47.560;9.708;2023-02-01T09:35:26;4.40;99.90
31783;DHT22;18351;47.560;9.708;2023-02-01T09:37:53;4.50;99.90
31783;DHT22;18351;47.560;9.708;2023-02-01T09:40:19;4.70;99.90
31783;DHT22;18351;47.560;9.708;2023-02-01T09:43:35;4.90;99.90
31783;DHT22;18351;47.560;9.708;2023-02-01T09:46:24;5.00;99.90
31783;DHT22;18351;47.560;9.708;2023-02-01T09:48:54;5.10;99.90
31783;DHT22;18351;47.560;9.708;2023-02-01T09:51:27;5.20;99.90
31783;DHT22;18351;47.560;9.708;2023-02-01T09:54:09;5.30;99.90
31783;DHT22;18351;47.560;9.708;2023-02-01T09:56:46;5.40;99.90
31783;DHT22;18351;47.560;9.708;2023-02-01T09:59:21;5.60;99.90
31783;DHT22;18351;47.560;9.708;2023-02-01T10:01:48;5.70;99.90
31783;DHT22;18351;47.560;9.708;2023-02-01T10:04:15;5.80;99.90
31783;DHT22;18351;47.560;9.708;2023-02-01T10:17:35;6.10;99.90
31783;DHT22;18351;47.560;9.708;2023-02-01T10:20:25;6.20;99.90
31783;DHT22;18351;47.560;9.708;2023-02-01T10:26:16;6.30;99.90
31783;DHT22;18351;47.560;9.708;2023-02-01T10:28:43;6.40;99.90
31783;DHT22;18351;47.560;9.708;2023-02-01T10:31:10;6.50;99.90
31783;DHT22;18351;47.560;9.708;2023-02-01T10:33:43;6.60;99.90
31783;DHT22;18351;47.560;9.708;2023-02-01T10:36:22;6.60;99.90
31783;DHT22;18351;47.560;9.708;2023-02-01T10:38:48;6.70;99.90
31783;DHT22;18351;47.560;9.708;2023-02-01T10:41:20;6.70;99.90
31783;DHT22;18351;47.560;9.708;2023-02-01T10:43:50;6.70;99.90
31783;DHT22;18351;47.560;9.708;2023-02-01T10:46:18;6.70;99.90
31783;DHT22;18351;47.560;9.708;2023-02-01T10:48:43;6.70;99.90
31783;DHT22;18351;47.560;9.708;2023-02-01T10:51:24;6.70;99.90
31783;DHT22;18351;47.560;9.708;2023-02-01T10:54:14;6.70;99.90
31783;DHT22;18351;47.560;9.708;2023-02-01T10:56:43;6.80;99.90
31783;DHT22;18351;47.560;9.708;2023-02-01T10:59:17;6.90;99.90
31783;DHT22;18351;47.560;9.708;2023-02-01T11:01:45;6.90;99.90
31783;DHT22;18351;47.560;9.708;2023-02-01T11:04:16;7.00;99.90
31783;DHT22;18351;47.560;9.708;2023-02-01T11:09:41;7.10;99.90
31783;DHT22;18351;47.560;9.708;2023-02-01T11:12:24;7.20;99.90
31783;DHT22;18351;47.560;9.708;2023-02-01T11:14:50;7.10;99.90
31783;DHT22;18351;47.560;9.708;2023-02-01T11:17:17;7.10;99.90
31783;DHT22;18351;47.560;9.708;2023-02-01T11:20:00;7.10;99.90
31783;DHT22;18351;47.560;9.708;2023-02-01T11:22:27;7.10;99.90
31783;DHT22;18351;47.560;9.708;2023-02-01T11:24:54;7.10;99.90
31783;DHT22;18351;47.560;9.708;2023-02-01T11:27:22;7.00;99.90
31783;DHT22;18351;47.560;9.708;2023-02-01T11:29:53;7.00;99.90
31783;DHT22;18351;47.560;9.708;2023-02-01T11:32:23;7.00;99.90
31783;DHT22;18351;47.560;9.708;2023-02-01T11:35:01;7.00;99.90
31783;DHT22;18351;47.560;9.708;2023-02-01T11:37:30;7.10;99.90
31783;DHT22;18351;47.560;9.708;2023-02-01T11:40:01;7.10;99.90
31783;DHT22;18351;47.560;9.708;2023-02-01T11:42:29;7.10;99.90
31783;DHT22;18351;47.560;9.708;2023-02-01T11:45:18;7.10;99.90
31783;DHT22;18351;47.560;9.708;2023-02-01T11:47:44;7.10;99.90
31783;DHT22;18351;47.560;9.708;2023-02-01T11:50:49;7.30;99.90
31783;DHT22;18351;47.560;9.708;2023-02-01T11:56:10;7.50;99.90
31783;DHT22;18351;47.560;9.708;2023-02-01T12:07:00;7.70;99.90
31783;DHT22;18351;47.560;9.708;2023-02-01T12:15:54;7.40;99.90
31783;DHT22;18351;47.560;9.708;2023-02-01T12:21:24;7.20;99.90
31783;DHT22;18351;47.560;9.708;2023-02-01T12:29:55;7.00;99.90
31783;DHT22;18351;47.560;9.708;2023-02-01T12:43:38;7.00;99.90
31783;DHT22;18351;47.560;9.708;2023-02-01T12:46:13;7.00;99.90
31783;DHT22;18351;47.560;9.708;2023-02-01T12:49:02;7.10;99.90
31783;DHT22;18351;47.560;9.708;2023-02-01T12:51:35;7.10;99.90
31783;DHT22;18351;47.560;9.708;2023-02-01T12:57:11;7.10;99.90
31783;DHT22;18351;47.560;9.708;2023-02-01T13:06:01;7.10;99.90
31783;DHT22;18351;47.560;9.708;2023-02-01T13:11:09;7.10;99.90
31783;DHT22;18351;47.560;9.708;2023-02-01T13:13:56;7.20;99.90
31783;DHT22;18351;47.560;9.708;2023-02-01T13:16:28;7.20;99.90
31783;DHT22;18351;47.560;9.708;2023-02-01T13:21:48;7.20;99.90
31783;DHT22;18351;47.560;9.708;2023-02-01T13:26:55;7.30;99.90
31783;DHT22;18351;47.560;9.708;2023-02-01T13:29:23;7.40;99.90
31783;DHT22;18351;47.560;9.708;2023-02-01T13:32:19;7.40;99.90
31783;DHT22;18351;47.560;9.708;2023-02-01T13:35:01;7.40;99.90
31783;DHT22;18351;47.560;9.708;2023-02-01T13:40:41;7.40;99.90
31783;DHT22;18351;47.560;9.708;2023-02-01T13:43:27;7.40;99.90
31783;DHT22;18351;47.560;9.708;2023-02-01T13:45:56;7.40;99.90
31783;DHT22;18351;47.560;9.708;2023-02-01T13:48:38;7.30;99.90
31783;DHT22;18351;47.560;9.708;2023-02-01T13:51:05;7.20;99.90
31783;DHT22;18351;47.560;9.708;2023-02-01T13:53:34;7.20;99.90
31783;DHT22;18351;47.560;9.708;2023-02-01T13:56:17;7.10;99.90
31783;DHT22;18351;47.560;9.708;2023-02-01T13:58:45;7.10;99.90
31783;DHT22;18351;47.560;9.708;2023-02-01T14:04:02;7.10;99.90
31783;DHT22;18351;47.560;9.708;2023-02-01T14:12:43;6.90;99.90
31783;DHT22;18351;47.560;9.708;2023-02-01T14:15:27;7.00;99.90
31783;DHT22;18351;47.560;9.708;2023-02-01T14:17:53;6.90;99.90
31783;DHT22;18351;47.560;9.708;2023-02-01T14:20:42;6.90;99.90
31783;DHT22;18351;47.560;9.708;2023-02-01T14:23:17;6.90;99.90
31783;DHT22;18351;47.560;9.708;2023-02-01T14:25:44;6.90;99.90
31783;DHT22;18351;47.560;9.708;2023-02-01T14:28:22;6.80;99.90
31783;DHT22;18351;47.560;9.708;2023-02-01T14:30:48;6.80;99.90
31783;DHT22;18351;47.560;9.708;2023-02-01T14:33:27;6.80;99.90
31783;DHT22;18351;47.560;9.708;2023-02-01T14:36:10;6.70;99.90
31783;DHT22;18351;47.560;9.708;2023-02-01T14:38:37;6.60;99.90
31783;DHT22;18351;47.560;9.708;2023-02-01T14:41:26;6.50;99.90
31783;DHT22;18351;47.560;9.708;2023-02-01T14:50:03;6.50;99.90
31783;DHT22;18351;47.560;9.708;2023-02-01T14:52:36;6.50;99.90
31783;DHT22;18351;47.560;9.708;2023-02-01T14:55:06;6.50;99.90
31783;DHT22;18351;47.560;9.708;2023-02-01T14:57:37;6.50;99.90
31783;DHT22;18351;47.560;9.708;2023-02-01T15:00:18;6.50;99.90
31783;DHT22;18351;47.560;9.708;2023-02-01T15:02:44;6.60;99.90
31783;DHT22;18351;47.560;9.708;2023-02-01T15:07:51;6.50;99.90
31783;DHT22;18351;47.560;9.708;2023-02-01T15:10:18;6.50;99.90
31783;DHT22;18351;47.560;9.708;2023-02-01T15:12:45;6.50;99.90
31783;DHT22;18351;47.560;9.708;2023-02-01T15:15:18;6.60;99.90
31783;DHT22;18351;47.560;9.708;2023-02-01T15:17:51;6.50;99.90
31783;DHT22;18351;47.560;9.708;2023-02-01T15:20:28;6.50;99.90
31783;DHT22;18351;47.560;9.708;2023-02-01T15:25:32;6.50;99.90
31783;DHT22;18351;47.560;9.708;2023-02-01T15:27:59;6.50;99.90
31783;DHT22;18351;47.560;9.708;2023-02-01T15:30:30;6.50;99.90
31783;DHT22;18351;47.560;9.708;2023-02-01T15:33:16;6.50;99.90
31783;DHT22;18351;47.560;9.708;2023-02-01T15:35:50;6.50;99.90
31783;DHT22;18351;47.560;9.708;2023-02-01T15:40:58;6.50;99.90
31783;DHT22;18351;47.560;9.708;2023-02-01T15:43:24;6.60;99.90
31783;DHT22;18351;47.560;9.708;2023-02-01T15:45:51;6.50;99.90
31783;DHT22;18351;47.560;9.708;2023-02-01T15:48:22;6.60;99.90
31783;DHT22;18351;47.560;9.708;2023-02-01T15:50:49;6.60;99.90
31783;DHT22;18351;47.560;9.708;2023-02-01T15:53:22;6.50;99.90
31783;DHT22;18351;47.560;9.708;2023-02-01T15:55:54;6.50;99.90
31783;DHT22;18351;47.560;9.708;2023-02-01T15:58:22;6.50;99.90
31783;DHT22;18351;47.560;9.708;2023-02-01T16:00:58;6.40;99.90
31783;DHT22;18351;47.560;9.708;2023-02-01T16:03:42;6.40;99.90
31783;DHT22;18351;47.560;9.708;2023-02-01T16:08:35;6.40;99.90
31783;DHT22;18351;47.560;9.708;2023-02-01T16:11:24;6.40;99.90
31783;DHT22;18351;47.560;9.708;2023-02-01T16:13:50;6.40;99.90
31783;DHT22;18351;47.560;9.708;2023-02-01T16:16:16;6.40;99.90
31783;DHT22;18351;47.560;9.708;2023-02-01T16:18:41;6.40;99.90
31783;DHT22;18351;47.560;9.708;2023-02-01T16:21:07;6.40;99.90
31783;DHT22;18351;47.560;9.708;2023-02-01T16:23:37;6.30;99.90
31783;DHT22;18351;47.560;9.708;2023-02-01T16:26:03;6.30;99.90
31783;DHT22;18351;47.560;9.708;2023-02-01T16:28:29;6.30;99.90
31783;DHT22;18351;47.560;9.708;2023-02-01T16:30:54;6.30;99.90
31783;DHT22;18351;47.560;9.708;2023-02-01T16:33:21;6.30;99.90
31783;DHT22;18351;47.560;9.708;2023-02-01T16:35:48;6.30;99.90
31783;DHT22;18351;47.560;9.708;2023-02-01T16:38:16;6.30;99.90
31783;DHT22;18351;47.560;9.708;2023-02-01T16:40:44;6.20;99.90
31783;DHT22;18351;47.560;9.708;2023-02-01T16:43:18;6.20;99.90
31783;DHT22;18351;47.560;9.708;2023-02-01T16:45:44;6.20;99.90
31783;DHT22;18351;47.560;9.708;2023-02-01T16:50:45;6.20;99.90
31783;DHT22;18351;47.560;9.708;2023-02-01T16:53:12;6.20;99.90
31783;DHT22;18351;47.560;9.708;2023-02-01T16:55:39;6.20;99.90
31783;DHT22;18351;47.560;9.708;2023-02-01T16:58:04;6.20;99.90
31783;DHT22;18351;47.560;9.708;2023-02-01T17:00:30;6.20;99.90
31783;DHT22;18351;47.560;9.708;2023-02-01T17:02:58;6.20;99.90
31783;DHT22;18351;47.560;9.708;2023-02-01T17:05:24;6.20;99.90
31783;DHT22;18351;47.560;9.708;2023-02-01T17:07:50;6.20;99.90
31783;DHT22;18351;47.560;9.708;2023-02-01T17:10:25;6.20;99.90
31783;DHT22;18351;47.560;9.708;2023-02-01T17:12:52;6.10;99.90
31783;DHT22;18351;47.560;9.708;2023-02-01T17:15:17;6.10;99.90
31783;DHT22;18351;47.560;9.708;2023-02-01T17:17:43;6.10;99.90
31783;DHT22;18351;47.560;9.708;2023-02-01T17:20:21;6.10;99.90
31783;DHT22;18351;47.560;9.708;2023-02-01T17:22:47;6.10;99.90
31783;DHT22;18351;47.560;9.708;2023-02-01T17:25:18;6.10;99.90
31783;DHT22;18351;47.560;9.708;2023-02-01T17:27:44;6.10;99.90
31783;DHT22;18351;47.560;9.708;2023-02-01T17:30:11;6.10;99.90
31783;DHT22;18351;47.560;9.708;2023-02-01T17:32:36;6.10;99.90
31783;DHT22;18351;47.560;9.708;2023-02-01T17:35:04;6.10;99.90
31783;DHT22;18351;47.560;9.708;2023-02-01T17:37:32;6.10;99.90
31783;DHT22;18351;47.560;9.708;2023-02-01T17:39:59;6.10;99.90
31783;DHT22;18351;47.560;9.708;2023-02-01T17:42:27;6.10;99.90
31783;DHT22;18351;47.560;9.708;2023-02-01T17:44:59;6.10;99.90
31783;DHT22;18351;47.560;9.708;2023-02-01T17:47:25;6.10;99.90
31783;DHT22;18351;47.560;9.708;2023-02-01T17:49:50;6.10;99.90
31783;DHT22;18351;47.560;9.708;2023-02-01T17:52:22;6.10;99.90
31783;DHT22;18351;47.560;9.708;2023-02-01T17:54:48;6.10;99.90
31783;DHT22;18351;47.560;9.708;2023-02-01T17:57:15;6.10;99.90
31783;DHT22;18351;47.560;9.708;2023-02-01T17:59:41;6.10;99.90
31783;DHT22;18351;47.560;9.708;2023-02-01T18:02:22;6.10;99.90
31783;DHT22;18351;47.560;9.708;2023-02-01T18:04:48;6.10;99.90
31783;DHT22;18351;47.560;9.708;2023-02-01T18:07:14;6.10;99.90
31783;DHT22;18351;47.560;9.708;2023-02-01T18:09:40;6.10;99.90
31783;DHT22;18351;47.560;9.708;2023-02-01T18:12:06;6.10;99.90